sensor_id;sensor_type;location;lat;lon;timestamp;P1;durP1;ratioP1;P2;durP2;ratioP2
70150;SDS011;57517;43.562;19.540;2024-01-16T00:01:42;171.70;;;130.93;;
70150;SDS011;57517;43.562;19.540;2024-01-16T00:04:09;165.77;;;129.52;;
70150;SDS011;57517;43.562;19.540;2024-01-16T00:06:39;176.95;;;131.85;;
70150;SDS011;57517;43.562;19.540;2024-01-16T00:09:08;162.20;;;121.13;;
70150;SDS011;57517;43.562;19.540;2024-01-16T00:11:40;163.43;;;125.22;;
70150;SDS011;57517;43.562;19.540;2024-01-16T00:14:06;176.07;;;130.25;;
70150;SDS011;57517;43.562;19.540;2024-01-16T00:16:32;159.45;;;119.30;;
70150;SDS011;57517;43.562;19.540;2024-01-16T00:18:58;158.85;;;119.00;;
70150;SDS011;57517;43.562;19.540;2024-01-16T00:21:24;146.20;;;111.50;;
70150;SDS011;57517;43.562;19.540;2024-01-16T00:23:49;139.70;;;109.03;;
70150;SDS011;57517;43.562;19.540;2024-01-16T00:26:22;145.13;;;115.50;;
70150;SDS011;57517;43.562;19.540;2024-01-16T00:28:48;144.13;;;112.60;;
70150;SDS011;57517;43.562;19.540;2024-01-16T00:31:14;153.23;;;113.53;;
70150;SDS011;57517;43.562;19.540;2024-01-16T00:33:40;155.63;;;118.97;;
70150;SDS011;57517;43.562;19.540;2024-01-16T00:36:05;158.52;;;116.25;;
70150;SDS011;57517;43.562;19.540;2024-01-16T00:38:34;155.82;;;120.53;;
70150;SDS011;57517;43.562;19.540;2024-01-16T00:41:00;152.77;;;115.10;;
70150;SDS011;57517;43.562;19.540;2024-01-16T00:43:26;144.05;;;109.72;;
70150;SDS011;57517;43.562;19.540;2024-01-16T00:45:52;140.00;;;107.05;;
70150;SDS011;57517;43.562;19.540;2024-01-16T00:48:17;153.10;;;118.63;;
70150;SDS011;57517;43.562;19.540;2024-01-16T00:50:45;138.55;;;106.65;;
70150;SDS011;57517;43.562;19.540;2024-01-16T00:53:15;118.70;;;94.13;;
70150;SDS011;57517;43.562;19.540;2024-01-16T00:55:41;131.30;;;98.00;;
70150;SDS011;57517;43.562;19.540;2024-01-16T00:58:07;132.43;;;100.97;;
70150;SDS011;57517;43.562;19.540;2024-01-16T01:00:33;124.40;;;88.75;;
70150;SDS011;57517;43.562;19.540;2024-01-16T01:03:00;117.90;;;86.05;;
70150;SDS011;57517;43.562;19.540;2024-01-16T01:05:26;107.15;;;80.43;;
70150;SDS011;57517;43.562;19.540;2024-01-16T01:07:56;114.70;;;83.10;;
70150;SDS011;57517;43.562;19.540;2024-01-16T01:10:22;125.00;;;93.20;;
70150;SDS011;57517;43.562;19.540;2024-01-16T01:12:48;120.68;;;92.40;;
70150;SDS011;57517;43.562;19.540;2024-01-16T01:15:14;113.70;;;87.22;;
70150;SDS011;57517;43.562;19.540;2024-01-16T01:17:40;111.22;;;84.88;;
70150;SDS011;57517;43.562;19.540;2024-01-16T01:20:07;114.55;;;87.75;;
70150;SDS011;57517;43.562;19.540;2024-01-16T01:22:33;116.15;;;84.93;;
70150;SDS011;57517;43.562;19.540;2024-01-16T01:24:59;110.38;;;85.70;;
70150;SDS011;57517;43.562;19.540;2024-01-16T01:27:25;109.75;;;85.28;;
70150;SDS011;57517;43.562;19.540;2024-01-16T01:29:51;108.22;;;83.88;;
70150;SDS011;57517;43.562;19.540;2024-01-16T01:32:17;115.95;;;87.15;;
70150;SDS011;57517;43.562;19.540;2024-01-16T01:34:42;115.70;;;88.22;;
70150;SDS011;57517;43.562;19.540;2024-01-16T01:37:08;113.93;;;89.10;;
70150;SDS011;57517;43.562;19.540;2024-01-16T01:39:34;120.20;;;88.60;;
70150;SDS011;57517;43.562;19.540;2024-01-16T01:42:00;120.68;;;89.38;;
70150;SDS011;57517;43.562;19.540;2024-01-16T01:44:25;112.63;;;84.88;;
70150;SDS011;57517;43.562;19.540;2024-01-16T01:46:53;115.95;;;90.25;;
70150;SDS011;57517;43.562;19.540;2024-01-16T01:49:20;117.15;;;89.32;;
70150;SDS011;57517;43.562;19.540;2024-01-16T01:51:48;99.57;;;75.25;;
70150;SDS011;57517;43.562;19.540;2024-01-16T01:54:14;90.43;;;64.45;;
70150;SDS011;57517;43.562;19.540;2024-01-16T01:56:45;96.40;;;68.00;;
70150;SDS011;57517;43.562;19.540;2024-01-16T01:59:16;96.78;;;71.45;;
70150;SDS011;57517;43.562;19.540;2024-01-16T02:01:44;59.17;;;41.45;;
70150;SDS011;57517;43.562;19.540;2024-01-16T02:04:15;33.92;;;25.27;;
70150;SDS011;57517;43.562;19.540;2024-01-16T02:06:42;57.65;;;43.65;;
70150;SDS011;57517;43.562;19.540;2024-01-16T02:09:12;74.38;;;58.13;;
70150;SDS011;57517;43.562;19.540;2024-01-16T02:11:41;95.53;;;68.25;;
70150;SDS011;57517;43.562;19.540;2024-01-16T02:14:07;89.05;;;65.60;;
70150;SDS011;57517;43.562;19.540;2024-01-16T02:16:37;85.82;;;63.20;;
70150;SDS011;57517;43.562;19.540;2024-01-16T02:19:04;80.78;;;58.35;;
70150;SDS011;57517;43.562;19.540;2024-01-16T02:21:41;49.88;;;37.53;;
70150;SDS011;57517;43.562;19.540;2024-01-16T02:24:19;39.47;;;28.95;;
70150;SDS011;57517;43.562;19.540;2024-01-16T02:26:46;37.05;;;29.15;;
70150;SDS011;57517;43.562;19.540;2024-01-16T02:29:12;50.90;;;37.78;;
70150;SDS011;57517;43.562;19.540;2024-01-16T02:31:38;17.73;;;12.35;;
70150;SDS011;57517;43.562;19.540;2024-01-16T02:34:04;13.77;;;10.20;;
70150;SDS011;57517;43.562;19.540;2024-01-16T02:36:30;13.15;;;8.98;;
70150;SDS011;57517;43.562;19.540;2024-01-16T02:38:57;13.13;;;9.85;;
70150;SDS011;57517;43.562;19.540;2024-01-16T02:41:23;10.52;;;7.80;;
70150;SDS011;57517;43.562;19.540;2024-01-16T02:43:49;7.90;;;6.18;;
70150;SDS011;57517;43.562;19.540;2024-01-16T02:46:15;11.68;;;8.15;;
70150;SDS011;57517;43.562;19.540;2024-01-16T02:48:40;9.05;;;5.88;;
70150;SDS011;57517;43.562;19.540;2024-01-16T02:51:09;9.05;;;4.88;;
70150;SDS011;57517;43.562;19.540;2024-01-16T02:53:35;6.22;;;5.18;;
70150;SDS011;57517;43.562;19.540;2024-01-16T02:56:01;5.72;;;3.92;;
70150;SDS011;57517;43.562;19.540;2024-01-16T02:58:27;6.45;;;4.43;;
70150;SDS011;57517;43.562;19.540;2024-01-16T03:00:54;5.10;;;3.80;;
70150;SDS011;57517;43.562;19.540;2024-01-16T03:03:20;5.68;;;3.78;;
70150;SDS011;57517;43.562;19.540;2024-01-16T03:05:47;5.40;;;3.47;;
70150;SDS011;57517;43.562;19.540;2024-01-16T03:08:13;4.35;;;2.80;;
70150;SDS011;57517;43.562;19.540;2024-01-16T03:10:39;4.07;;;2.33;;
70150;SDS011;57517;43.562;19.540;2024-01-16T03:13:05;4.70;;;2.50;;
70150;SDS011;57517;43.562;19.540;2024-01-16T03:15:30;3.63;;;2.30;;
70150;SDS011;57517;43.562;19.540;2024-01-16T03:17:57;4.75;;;2.45;;
70150;SDS011;57517;43.562;19.540;2024-01-16T03:20:23;4.50;;;2.60;;
70150;SDS011;57517;43.562;19.540;2024-01-16T03:22:49;4.90;;;2.33;;
70150;SDS011;57517;43.562;19.540;2024-01-16T03:25:16;4.97;;;2.30;;
70150;SDS011;57517;43.562;19.540;2024-01-16T03:27:41;3.92;;;2.40;;
70150;SDS011;57517;43.562;19.540;2024-01-16T03:30:08;3.88;;;2.20;;
70150;SDS011;57517;43.562;19.540;2024-01-16T03:32:34;4.40;;;2.58;;
70150;SDS011;57517;43.562;19.540;2024-01-16T03:35:01;8.45;;;4.25;;
70150;SDS011;57517;43.562;19.540;2024-01-16T03:37:27;6.78;;;4.45;;
70150;SDS011;57517;43.562;19.540;2024-01-16T03:39:52;5.88;;;3.92;;
70150;SDS011;57517;43.562;19.540;2024-01-16T03:42:19;7.78;;;4.65;;
70150;SDS011;57517;43.562;19.540;2024-01-16T03:44:46;5.47;;;4.10;;
70150;SDS011;57517;43.562;19.540;2024-01-16T03:47:11;5.63;;;3.72;;
70150;SDS011;57517;43.562;19.540;2024-01-16T03:49:38;7.10;;;3.63;;
70150;SDS011;57517;43.562;19.540;2024-01-16T03:52:04;6.00;;;3.65;;
70150;SDS011;57517;43.562;19.540;2024-01-16T03:54:30;5.60;;;3.42;;
70150;SDS011;57517;43.562;19.540;2024-01-16T03:56:56;6.55;;;4.13;;
70150;SDS011;57517;43.562;19.540;2024-01-16T03:59:22;6.63;;;4.32;;
70150;SDS011;57517;43.562;19.540;2024-01-16T04:01:48;6.47;;;4.25;;
70150;SDS011;57517;43.562;19.540;2024-01-16T04:04:15;7.25;;;4.53;;
70150;SDS011;57517;43.562;19.540;2024-01-16T04:06:41;7.57;;;5.05;;
70150;SDS011;57517;43.562;19.540;2024-01-16T04:09:07;12.75;;;7.43;;
70150;SDS011;57517;43.562;19.540;2024-01-16T04:11:34;9.57;;;6.40;;
70150;SDS011;57517;43.562;19.540;2024-01-16T04:14:01;8.68;;;5.50;;
70150;SDS011;57517;43.562;19.540;2024-01-16T04:16:27;8.48;;;5.75;;
70150;SDS011;57517;43.562;19.540;2024-01-16T04:18:53;10.05;;;6.22;;
70150;SDS011;57517;43.562;19.540;2024-01-16T04:21:19;7.70;;;5.05;;
70150;SDS011;57517;43.562;19.540;2024-01-16T04:23:45;5.75;;;3.60;;
70150;SDS011;57517;43.562;19.540;2024-01-16T04:26:11;7.20;;;3.80;;
70150;SDS011;57517;43.562;19.540;2024-01-16T04:28:36;5.75;;;3.53;;
70150;SDS011;57517;43.562;19.540;2024-01-16T04:31:03;6.85;;;3.55;;
70150;SDS011;57517;43.562;19.540;2024-01-16T04:33:29;6.38;;;4.20;;
70150;SDS011;57517;43.562;19.540;2024-01-16T04:35:55;6.00;;;4.68;;
70150;SDS011;57517;43.562;19.540;2024-01-16T04:38:21;8.05;;;5.43;;
70150;SDS011;57517;43.562;19.540;2024-01-16T04:40:47;7.60;;;4.95;;
70150;SDS011;57517;43.562;19.540;2024-01-16T04:43:13;8.90;;;5.60;;
70150;SDS011;57517;43.562;19.540;2024-01-16T04:45:38;8.98;;;5.82;;
70150;SDS011;57517;43.562;19.540;2024-01-16T04:48:04;11.95;;;7.35;;
70150;SDS011;57517;43.562;19.540;2024-01-16T04:50:30;16.27;;;11.30;;
70150;SDS011;57517;43.562;19.540;2024-01-16T04:52:59;11.38;;;6.50;;
70150;SDS011;57517;43.562;19.540;2024-01-16T04:55:25;6.35;;;5.22;;
70150;SDS011;57517;43.562;19.540;2024-01-16T04:57:52;7.47;;;5.15;;
70150;SDS011;57517;43.562;19.540;2024-01-16T05:00:18;8.15;;;5.75;;
70150;SDS011;57517;43.562;19.540;2024-01-16T05:02:45;9.75;;;7.25;;
70150;SDS011;57517;43.562;19.540;2024-01-16T05:05:12;8.88;;;6.93;;
70150;SDS011;57517;43.562;19.540;2024-01-16T05:07:38;10.85;;;7.65;;
70150;SDS011;57517;43.562;19.540;2024-01-16T05:10:04;11.70;;;7.80;;
70150;SDS011;57517;43.562;19.540;2024-01-16T05:12:31;49.08;;;28.83;;
70150;SDS011;57517;43.562;19.540;2024-01-16T05:14:57;46.80;;;27.98;;
70150;SDS011;57517;43.562;19.540;2024-01-16T05:17:23;87.05;;;53.88;;
70150;SDS011;57517;43.562;19.540;2024-01-16T05:19:49;52.38;;;32.33;;
70150;SDS011;57517;43.562;19.540;2024-01-16T05:22:15;36.17;;;21.35;;
70150;SDS011;57517;43.562;19.540;2024-01-16T05:24:40;23.30;;;16.42;;
70150;SDS011;57517;43.562;19.540;2024-01-16T05:27:06;32.28;;;24.05;;
70150;SDS011;57517;43.562;19.540;2024-01-16T05:29:32;28.08;;;20.95;;
70150;SDS011;57517;43.562;19.540;2024-01-16T05:31:58;21.02;;;16.25;;
70150;SDS011;57517;43.562;19.540;2024-01-16T05:34:24;13.50;;;9.90;;
70150;SDS011;57517;43.562;19.540;2024-01-16T05:36:50;13.45;;;9.40;;
70150;SDS011;57517;43.562;19.540;2024-01-16T05:39:16;15.10;;;10.85;;
70150;SDS011;57517;43.562;19.540;2024-01-16T05:41:42;16.00;;;12.32;;
70150;SDS011;57517;43.562;19.540;2024-01-16T05:44:08;16.75;;;12.85;;
70150;SDS011;57517;43.562;19.540;2024-01-16T05:46:33;15.95;;;11.13;;
70150;SDS011;57517;43.562;19.540;2024-01-16T05:48:59;14.48;;;11.50;;
70150;SDS011;57517;43.562;19.540;2024-01-16T05:51:27;14.02;;;10.10;;
70150;SDS011;57517;43.562;19.540;2024-01-16T05:53:56;11.40;;;8.60;;
70150;SDS011;57517;43.562;19.540;2024-01-16T05:56:22;12.45;;;9.35;;
70150;SDS011;57517;43.562;19.540;2024-01-16T05:58:48;14.05;;;10.15;;
70150;SDS011;57517;43.562;19.540;2024-01-16T06:01:14;18.58;;;13.70;;
70150;SDS011;57517;43.562;19.540;2024-01-16T06:03:40;25.27;;;20.83;;
70150;SDS011;57517;43.562;19.540;2024-01-16T06:06:06;23.80;;;18.08;;
70150;SDS011;57517;43.562;19.540;2024-01-16T06:08:32;29.85;;;21.25;;
70150;SDS011;57517;43.562;19.540;2024-01-16T06:10:59;35.35;;;25.27;;
70150;SDS011;57517;43.562;19.540;2024-01-16T06:13:25;39.17;;;27.52;;
70150;SDS011;57517;43.562;19.540;2024-01-16T06:15:51;32.63;;;26.42;;
70150;SDS011;57517;43.562;19.540;2024-01-16T06:18:16;34.72;;;27.95;;
70150;SDS011;57517;43.562;19.540;2024-01-16T06:20:42;41.03;;;31.15;;
70150;SDS011;57517;43.562;19.540;2024-01-16T06:23:08;45.47;;;33.45;;
70150;SDS011;57517;43.562;19.540;2024-01-16T06:25:34;41.55;;;28.80;;
70150;SDS011;57517;43.562;19.540;2024-01-16T06:27:59;27.73;;;19.48;;
70150;SDS011;57517;43.562;19.540;2024-01-16T06:30:25;26.40;;;18.98;;
70150;SDS011;57517;43.562;19.540;2024-01-16T06:32:51;28.20;;;19.88;;
70150;SDS011;57517;43.562;19.540;2024-01-16T06:35:17;26.63;;;20.83;;
70150;SDS011;57517;43.562;19.540;2024-01-16T06:37:43;40.63;;;29.50;;
70150;SDS011;57517;43.562;19.540;2024-01-16T06:40:09;44.97;;;34.40;;
70150;SDS011;57517;43.562;19.540;2024-01-16T06:42:35;46.83;;;36.33;;
70150;SDS011;57517;43.562;19.540;2024-01-16T06:45:01;55.72;;;40.65;;
70150;SDS011;57517;43.562;19.540;2024-01-16T06:47:28;44.88;;;31.33;;
70150;SDS011;57517;43.562;19.540;2024-01-16T06:49:54;64.70;;;46.80;;
70150;SDS011;57517;43.562;19.540;2024-01-16T06:52:19;62.10;;;44.00;;
70150;SDS011;57517;43.562;19.540;2024-01-16T06:54:45;60.13;;;45.50;;
70150;SDS011;57517;43.562;19.540;2024-01-16T06:57:11;48.60;;;37.33;;
70150;SDS011;57517;43.562;19.540;2024-01-16T06:59:37;49.03;;;36.60;;
70150;SDS011;57517;43.562;19.540;2024-01-16T07:02:03;61.17;;;46.50;;
70150;SDS011;57517;43.562;19.540;2024-01-16T07:04:28;64.97;;;49.28;;
70150;SDS011;57517;43.562;19.540;2024-01-16T07:06:54;83.55;;;58.78;;
70150;SDS011;57517;43.562;19.540;2024-01-16T07:09:20;108.78;;;78.53;;
70150;SDS011;57517;43.562;19.540;2024-01-16T07:11:46;98.13;;;66.68;;
70150;SDS011;57517;43.562;19.540;2024-01-16T07:14:12;81.00;;;55.97;;
70150;SDS011;57517;43.562;19.540;2024-01-16T07:16:38;56.45;;;43.53;;
70150;SDS011;57517;43.562;19.540;2024-01-16T07:19:04;56.15;;;41.22;;
70150;SDS011;57517;43.562;19.540;2024-01-16T07:21:30;67.03;;;50.00;;
70150;SDS011;57517;43.562;19.540;2024-01-16T07:23:56;77.50;;;60.30;;
70150;SDS011;57517;43.562;19.540;2024-01-16T07:26:23;82.78;;;59.15;;
70150;SDS011;57517;43.562;19.540;2024-01-16T07:28:49;68.55;;;51.55;;
70150;SDS011;57517;43.562;19.540;2024-01-16T07:31:15;66.18;;;51.35;;
70150;SDS011;57517;43.562;19.540;2024-01-16T07:33:44;70.82;;;53.83;;
70150;SDS011;57517;43.562;19.540;2024-01-16T07:36:10;77.85;;;57.20;;
70150;SDS011;57517;43.562;19.540;2024-01-16T07:38:36;68.07;;;51.30;;
70150;SDS011;57517;43.562;19.540;2024-01-16T07:41:02;69.00;;;51.95;;
70150;SDS011;57517;43.562;19.540;2024-01-16T07:43:28;65.50;;;51.30;;
70150;SDS011;57517;43.562;19.540;2024-01-16T07:45:57;72.05;;;57.88;;
70150;SDS011;57517;43.562;19.540;2024-01-16T07:48:23;71.03;;;54.72;;
70150;SDS011;57517;43.562;19.540;2024-01-16T07:50:49;66.00;;;51.80;;
70150;SDS011;57517;43.562;19.540;2024-01-16T07:53:15;70.53;;;55.15;;
70150;SDS011;57517;43.562;19.540;2024-01-16T07:55:44;67.20;;;53.95;;
70150;SDS011;57517;43.562;19.540;2024-01-16T07:58:11;86.50;;;65.93;;
70150;SDS011;57517;43.562;19.540;2024-01-16T08:00:37;99.45;;;78.05;;
70150;SDS011;57517;43.562;19.540;2024-01-16T08:03:02;82.93;;;62.00;;
70150;SDS011;57517;43.562;19.540;2024-01-16T08:05:29;88.50;;;65.38;;
70150;SDS011;57517;43.562;19.540;2024-01-16T08:07:55;84.60;;;63.75;;
70150;SDS011;57517;43.562;19.540;2024-01-16T08:10:24;82.53;;;62.00;;
70150;SDS011;57517;43.562;19.540;2024-01-16T08:12:50;81.10;;;61.10;;
70150;SDS011;57517;43.562;19.540;2024-01-16T08:15:16;78.35;;;59.20;;
70150;SDS011;57517;43.562;19.540;2024-01-16T08:17:42;82.22;;;61.58;;
70150;SDS011;57517;43.562;19.540;2024-01-16T08:20:08;84.00;;;63.92;;
70150;SDS011;57517;43.562;19.540;2024-01-16T08:22:38;87.13;;;68.93;;
70150;SDS011;57517;43.562;19.540;2024-01-16T08:25:04;107.10;;;79.05;;
70150;SDS011;57517;43.562;19.540;2024-01-16T08:27:30;101.22;;;75.25;;
70150;SDS011;57517;43.562;19.540;2024-01-16T08:29:56;97.57;;;72.13;;
70150;SDS011;57517;43.562;19.540;2024-01-16T08:32:22;83.78;;;62.38;;
70150;SDS011;57517;43.562;19.540;2024-01-16T08:34:48;76.25;;;56.05;;
70150;SDS011;57517;43.562;19.540;2024-01-16T08:37:14;76.55;;;52.83;;
70150;SDS011;57517;43.562;19.540;2024-01-16T08:39:39;72.00;;;52.30;;
70150;SDS011;57517;43.562;19.540;2024-01-16T08:42:05;66.15;;;47.38;;
70150;SDS011;57517;43.562;19.540;2024-01-16T08:44:31;53.75;;;42.05;;
70150;SDS011;57517;43.562;19.540;2024-01-16T08:46:57;62.60;;;45.15;;
70150;SDS011;57517;43.562;19.540;2024-01-16T08:49:24;89.90;;;59.17;;
70150;SDS011;57517;43.562;19.540;2024-01-16T08:51:50;100.35;;;61.88;;
70150;SDS011;57517;43.562;19.540;2024-01-16T08:54:16;91.30;;;55.67;;
70150;SDS011;57517;43.562;19.540;2024-01-16T08:56:41;91.15;;;60.67;;
70150;SDS011;57517;43.562;19.540;2024-01-16T08:59:07;98.20;;;66.47;;
70150;SDS011;57517;43.562;19.540;2024-01-16T09:01:35;86.63;;;59.38;;
70150;SDS011;57517;43.562;19.540;2024-01-16T09:04:01;79.95;;;55.53;;
70150;SDS011;57517;43.562;19.540;2024-01-16T09:06:26;63.65;;;48.10;;
70150;SDS011;57517;43.562;19.540;2024-01-16T09:08:52;83.10;;;62.53;;
70150;SDS011;57517;43.562;19.540;2024-01-16T09:11:18;64.38;;;48.33;;
70150;SDS011;57517;43.562;19.540;2024-01-16T09:13:43;58.00;;;46.45;;
70150;SDS011;57517;43.562;19.540;2024-01-16T09:16:09;55.08;;;43.17;;
70150;SDS011;57517;43.562;19.540;2024-01-16T09:18:35;53.95;;;41.47;;
70150;SDS011;57517;43.562;19.540;2024-01-16T09:21:01;56.83;;;46.35;;
70150;SDS011;57517;43.562;19.540;2024-01-16T09:23:26;50.33;;;39.20;;
70150;SDS011;57517;43.562;19.540;2024-01-16T09:25:52;58.38;;;43.50;;
70150;SDS011;57517;43.562;19.540;2024-01-16T09:28:18;54.67;;;44.47;;
70150;SDS011;57517;43.562;19.540;2024-01-16T09:30:44;64.93;;;50.75;;
70150;SDS011;57517;43.562;19.540;2024-01-16T09:33:10;62.25;;;49.42;;
70150;SDS011;57517;43.562;19.540;2024-01-16T09:35:36;54.17;;;41.30;;
70150;SDS011;57517;43.562;19.540;2024-01-16T09:38:02;76.00;;;53.15;;
70150;SDS011;57517;43.562;19.540;2024-01-16T09:40:30;96.88;;;64.88;;
70150;SDS011;57517;43.562;19.540;2024-01-16T09:42:56;109.53;;;64.32;;
70150;SDS011;57517;43.562;19.540;2024-01-16T09:45:22;57.47;;;41.47;;
70150;SDS011;57517;43.562;19.540;2024-01-16T09:47:50;38.90;;;30.10;;
70150;SDS011;57517;43.562;19.540;2024-01-16T09:50:17;50.03;;;37.67;;
70150;SDS011;57517;43.562;19.540;2024-01-16T09:52:46;101.20;;;59.20;;
70150;SDS011;57517;43.562;19.540;2024-01-16T09:55:13;43.15;;;31.33;;
70150;SDS011;57517;43.562;19.540;2024-01-16T09:57:39;49.95;;;33.08;;
70150;SDS011;57517;43.562;19.540;2024-01-16T10:00:09;39.10;;;30.40;;
70150;SDS011;57517;43.562;19.540;2024-01-16T10:02:39;35.67;;;27.92;;
70150;SDS011;57517;43.562;19.540;2024-01-16T10:05:11;27.65;;;24.60;;
70150;SDS011;57517;43.562;19.540;2024-01-16T10:07:40;31.27;;;25.20;;
70150;SDS011;57517;43.562;19.540;2024-01-16T10:10:09;33.33;;;27.52;;
70150;SDS011;57517;43.562;19.540;2024-01-16T10:12:36;37.17;;;29.13;;
70150;SDS011;57517;43.562;19.540;2024-01-16T10:15:05;38.65;;;31.50;;
70150;SDS011;57517;43.562;19.540;2024-01-16T10:17:36;92.50;;;59.15;;
70150;SDS011;57517;43.562;19.540;2024-01-16T10:20:03;67.13;;;46.60;;
70150;SDS011;57517;43.562;19.540;2024-01-16T10:22:30;48.83;;;40.03;;
70150;SDS011;57517;43.562;19.540;2024-01-16T10:25:08;36.47;;;29.77;;
70150;SDS011;57517;43.562;19.540;2024-01-16T10:27:38;33.83;;;29.23;;
70150;SDS011;57517;43.562;19.540;2024-01-16T10:30:05;37.42;;;29.92;;
70150;SDS011;57517;43.562;19.540;2024-01-16T10:32:39;36.63;;;31.88;;
70150;SDS011;57517;43.562;19.540;2024-01-16T10:40:16;22.50;;;16.75;;
70150;SDS011;57517;43.562;19.540;2024-01-16T10:45:25;24.77;;;17.90;;
70150;SDS011;57517;43.562;19.540;2024-01-16T10:48:04;39.75;;;24.08;;
70150;SDS011;57517;43.562;19.540;2024-01-16T10:50:31;16.83;;;11.98;;
70150;SDS011;57517;43.562;19.540;2024-01-16T10:52:59;17.92;;;14.20;;
70150;SDS011;57517;43.562;19.540;2024-01-16T10:55:28;15.25;;;13.07;;
70150;SDS011;57517;43.562;19.540;2024-01-16T10:57:55;12.07;;;10.40;;
70150;SDS011;57517;43.562;19.540;2024-01-16T11:00:22;11.50;;;10.27;;
70150;SDS011;57517;43.562;19.540;2024-01-16T11:02:59;10.85;;;9.55;;
70150;SDS011;57517;43.562;19.540;2024-01-16T11:05:31;10.85;;;9.23;;
70150;SDS011;57517;43.562;19.540;2024-01-16T11:07:58;10.30;;;8.23;;
70150;SDS011;57517;43.562;19.540;2024-01-16T11:10:28;10.38;;;8.35;;
70150;SDS011;57517;43.562;19.540;2024-01-16T11:12:56;9.38;;;7.13;;
70150;SDS011;57517;43.562;19.540;2024-01-16T11:15:25;7.32;;;5.63;;
70150;SDS011;57517;43.562;19.540;2024-01-16T11:17:54;6.57;;;5.15;;
70150;SDS011;57517;43.562;19.540;2024-01-16T11:20:21;5.78;;;4.53;;
70150;SDS011;57517;43.562;19.540;2024-01-16T11:22:48;5.25;;;4.28;;
70150;SDS011;57517;43.562;19.540;2024-01-16T11:25:16;4.97;;;4.25;;
70150;SDS011;57517;43.562;19.540;2024-01-16T11:27:43;3.70;;;2.78;;
70150;SDS011;57517;43.562;19.540;2024-01-16T11:30:13;4.55;;;3.55;;
70150;SDS011;57517;43.562;19.540;2024-01-16T11:32:55;4.78;;;2.90;;
70150;SDS011;57517;43.562;19.540;2024-01-16T11:35:33;4.35;;;3.65;;
70150;SDS011;57517;43.562;19.540;2024-01-16T11:38:24;3.67;;;2.78;;
70150;SDS011;57517;43.562;19.540;2024-01-16T11:40:51;4.97;;;3.28;;
70150;SDS011;57517;43.562;19.540;2024-01-16T11:43:39;5.57;;;3.90;;
70150;SDS011;57517;43.562;19.540;2024-01-16T11:46:05;5.88;;;3.35;;
70150;SDS011;57517;43.562;19.540;2024-01-16T11:48:35;5.20;;;3.67;;
70150;SDS011;57517;43.562;19.540;2024-01-16T11:51:01;3.95;;;2.85;;
70150;SDS011;57517;43.562;19.540;2024-01-16T11:53:50;5.20;;;3.10;;
70150;SDS011;57517;43.562;19.540;2024-01-16T12:01:47;5.55;;;4.00;;
70150;SDS011;57517;43.562;19.540;2024-01-16T12:04:18;4.97;;;3.15;;
70150;SDS011;57517;43.562;19.540;2024-01-16T12:06:55;9.82;;;5.50;;
70150;SDS011;57517;43.562;19.540;2024-01-16T12:09:26;5.78;;;4.57;;
70150;SDS011;57517;43.562;19.540;2024-01-16T12:11:56;8.85;;;5.68;;
70150;SDS011;57517;43.562;19.540;2024-01-16T12:14:23;7.45;;;4.85;;
70150;SDS011;57517;43.562;19.540;2024-01-16T12:16:49;7.28;;;4.45;;
70150;SDS011;57517;43.562;19.540;2024-01-16T12:19:15;8.65;;;5.97;;
70150;SDS011;57517;43.562;19.540;2024-01-16T12:21:41;7.65;;;5.75;;
70150;SDS011;57517;43.562;19.540;2024-01-16T12:24:09;11.90;;;7.88;;
70150;SDS011;57517;43.562;19.540;2024-01-16T12:26:36;13.32;;;8.35;;
70150;SDS011;57517;43.562;19.540;2024-01-16T12:29:02;10.25;;;7.45;;
70150;SDS011;57517;43.562;19.540;2024-01-16T12:31:28;10.35;;;7.32;;
70150;SDS011;57517;43.562;19.540;2024-01-16T12:34:05;11.27;;;8.68;;
70150;SDS011;57517;43.562;19.540;2024-01-16T12:36:32;11.20;;;8.27;;
70150;SDS011;57517;43.562;19.540;2024-01-16T12:38:58;9.20;;;7.20;;
70150;SDS011;57517;43.562;19.540;2024-01-16T12:41:24;6.75;;;4.38;;
70150;SDS011;57517;43.562;19.540;2024-01-16T12:43:53;5.68;;;4.13;;
70150;SDS011;57517;43.562;19.540;2024-01-16T12:46:19;5.47;;;3.72;;
70150;SDS011;57517;43.562;19.540;2024-01-16T12:48:45;6.95;;;5.13;;
70150;SDS011;57517;43.562;19.540;2024-01-16T12:51:16;9.90;;;7.30;;
70150;SDS011;57517;43.562;19.540;2024-01-16T12:53:47;10.48;;;8.50;;
70150;SDS011;57517;43.562;19.540;2024-01-16T12:56:17;10.07;;;8.38;;
70150;SDS011;57517;43.562;19.540;2024-01-16T12:58:45;9.57;;;7.10;;
70150;SDS011;57517;43.562;19.540;2024-01-16T13:01:27;8.15;;;5.70;;
70150;SDS011;57517;43.562;19.540;2024-01-16T13:03:54;8.13;;;6.78;;
70150;SDS011;57517;43.562;19.540;2024-01-16T13:06:21;12.30;;;9.27;;
70150;SDS011;57517;43.562;19.540;2024-01-16T13:08:48;14.32;;;10.45;;
70150;SDS011;57517;43.562;19.540;2024-01-16T13:11:14;18.90;;;14.70;;
70150;SDS011;57517;43.562;19.540;2024-01-16T13:13:44;27.58;;;23.80;;
70150;SDS011;57517;43.562;19.540;2024-01-16T13:16:12;27.65;;;21.75;;
70150;SDS011;57517;43.562;19.540;2024-01-16T13:18:38;24.17;;;19.38;;
70150;SDS011;57517;43.562;19.540;2024-01-16T13:21:04;32.10;;;24.67;;
70150;SDS011;57517;43.562;19.540;2024-01-16T13:23:31;27.23;;;22.10;;
70150;SDS011;57517;43.562;19.540;2024-01-16T13:25:57;20.63;;;17.20;;
70150;SDS011;57517;43.562;19.540;2024-01-16T13:28:27;25.38;;;22.08;;
70150;SDS011;57517;43.562;19.540;2024-01-16T13:30:54;30.95;;;25.20;;
70150;SDS011;57517;43.562;19.540;2024-01-16T13:33:21;38.47;;;28.92;;
70150;SDS011;57517;43.562;19.540;2024-01-16T13:35:54;46.38;;;35.25;;
70150;SDS011;57517;43.562;19.540;2024-01-16T13:38:20;44.92;;;36.13;;
70150;SDS011;57517;43.562;19.540;2024-01-16T13:40:46;47.60;;;37.35;;
70150;SDS011;57517;43.562;19.540;2024-01-16T13:43:12;46.67;;;36.60;;
70150;SDS011;57517;43.562;19.540;2024-01-16T13:45:38;47.10;;;37.75;;
70150;SDS011;57517;43.562;19.540;2024-01-16T13:48:06;46.85;;;36.90;;
70150;SDS011;57517;43.562;19.540;2024-01-16T13:50:32;43.63;;;34.42;;
70150;SDS011;57517;43.562;19.540;2024-01-16T13:52:59;50.08;;;36.38;;
70150;SDS011;57517;43.562;19.540;2024-01-16T13:55:25;55.88;;;41.47;;
70150;SDS011;57517;43.562;19.540;2024-01-16T13:57:51;64.63;;;53.03;;
70150;SDS011;57517;43.562;19.540;2024-01-16T14:00:17;73.03;;;54.28;;
70150;SDS011;57517;43.562;19.540;2024-01-16T14:02:43;83.80;;;63.92;;
70150;SDS011;57517;43.562;19.540;2024-01-16T14:05:14;83.25;;;65.30;;
70150;SDS011;57517;43.562;19.540;2024-01-16T14:07:43;83.00;;;65.57;;
70150;SDS011;57517;43.562;19.540;2024-01-16T14:10:12;83.97;;;64.13;;
70150;SDS011;57517;43.562;19.540;2024-01-16T14:12:40;89.68;;;66.60;;
70150;SDS011;57517;43.562;19.540;2024-01-16T14:15:10;82.22;;;63.85;;
70150;SDS011;57517;43.562;19.540;2024-01-16T14:17:54;83.55;;;66.72;;
70150;SDS011;57517;43.562;19.540;2024-01-16T14:20:21;91.47;;;68.22;;
70150;SDS011;57517;43.562;19.540;2024-01-16T14:22:49;94.85;;;75.75;;
70150;SDS011;57517;43.562;19.540;2024-01-16T14:25:16;94.22;;;76.57;;
70150;SDS011;57517;43.562;19.540;2024-01-16T14:28:05;74.03;;;58.92;;